South Bend, Indiana
Current Conditions -  °F | °C
As of 9:54 PM on Monday 20 Oct 2014 (Local Time) from KSBN Reporting Station
Overcast Overcast  
Wind Chill: 52°   Ceiling: 3500
Heat Index: 52°   Visibility: 10mi
Dew Point: 47°   Wind: 8mph
Humidity: 83%   Direction: 320°NW
Pressure: 29.96"   Gusts: NA
Location:  41.68°N, 86.25°W
Report Text: KSBN 210154Z 32007KT 10SM FEW023 BKN035 OVC070 11/08 A2996 RMK AO2 SLP148 T01110083
Loading
Personal Weather Stations






























Interactive Weather Map New forecast layout! Learn more

10-Day Weather Forecast

Advertisements
Track Severe Weather on mobile